sensor_id;sensor_type;location;lat;lon;timestamp;temperature;humidity
68139;DHT22;54940;50.842;4.410;2022-08-25T00:00:42;24.90;93.20
68139;DHT22;54940;50.842;4.410;2022-08-25T00:03:09;24.80;93.40
68139;DHT22;54940;50.842;4.410;2022-08-25T00:05:35;24.80;93.70
68139;DHT22;54940;50.842;4.410;2022-08-25T00:08:02;24.80;93.30
68139;DHT22;54940;50.842;4.410;2022-08-25T00:10:31;24.70;93.20
68139;DHT22;54940;50.842;4.410;2022-08-25T00:13:00;24.70;93.50
68139;DHT22;54940;50.842;4.410;2022-08-25T00:15:26;24.70;93.40
68139;DHT22;54940;50.842;4.410;2022-08-25T00:17:52;24.70;93.60
68139;DHT22;54940;50.842;4.410;2022-08-25T00:20:19;24.70;93.50
68139;DHT22;54940;50.842;4.410;2022-08-25T00:22:44;24.60;93.50
68139;DHT22;54940;50.842;4.410;2022-08-25T00:25:10;24.60;93.60
68139;DHT22;54940;50.842;4.410;2022-08-25T00:27:36;24.60;93.80
68139;DHT22;54940;50.842;4.410;2022-08-25T00:30:03;24.60;93.70
68139;DHT22;54940;50.842;4.410;2022-08-25T00:32:30;24.60;93.60
68139;DHT22;54940;50.842;4.410;2022-08-25T00:34:56;24.60;93.80
68139;DHT22;54940;50.842;4.410;2022-08-25T00:37:22;24.60;93.70
68139;DHT22;54940;50.842;4.410;2022-08-25T00:39:47;24.50;93.90
68139;DHT22;54940;50.842;4.410;2022-08-25T00:42:13;24.50;93.90
68139;DHT22;54940;50.842;4.410;2022-08-25T00:44:40;24.50;93.90
68139;DHT22;54940;50.842;4.410;2022-08-25T00:47:06;24.50;94.00
68139;DHT22;54940;50.842;4.410;2022-08-25T00:49:41;24.50;94.00
68139;DHT22;54940;50.842;4.410;2022-08-25T00:52:29;24.40;94.10
68139;DHT22;54940;50.842;4.410;2022-08-25T00:55:01;24.40;94.60
68139;DHT22;54940;50.842;4.410;2022-08-25T00:57:32;24.40;94.40
68139;DHT22;54940;50.842;4.410;2022-08-25T00:59:59;24.40;94.40
68139;DHT22;54940;50.842;4.410;2022-08-25T01:02:25;24.30;94.60
68139;DHT22;54940;50.842;4.410;2022-08-25T01:04:50;24.30;94.90
68139;DHT22;54940;50.842;4.410;2022-08-25T01:07:19;24.30;94.70
68139;DHT22;54940;50.842;4.410;2022-08-25T01:09:46;24.20;94.70
68139;DHT22;54940;50.842;4.410;2022-08-25T01:12:14;24.20;94.90
68139;DHT22;54940;50.842;4.410;2022-08-25T01:14:40;24.20;94.80
68139;DHT22;54940;50.842;4.410;2022-08-25T01:17:07;24.20;94.90
68139;DHT22;54940;50.842;4.410;2022-08-25T01:19:33;24.10;95.00
68139;DHT22;54940;50.842;4.410;2022-08-25T01:21:59;24.10;95.00
68139;DHT22;54940;50.842;4.410;2022-08-25T01:24:28;24.00;95.00
68139;DHT22;54940;50.842;4.410;2022-08-25T01:26:56;24.00;95.20
68139;DHT22;54940;50.842;4.410;2022-08-25T01:29:22;24.00;95.30
68139;DHT22;54940;50.842;4.410;2022-08-25T01:32:03;24.00;95.50
68139;DHT22;54940;50.842;4.410;2022-08-25T01:34:32;23.90;95.60
68139;DHT22;54940;50.842;4.410;2022-08-25T01:36:59;23.90;95.60
68139;DHT22;54940;50.842;4.410;2022-08-25T01:39:27;23.90;95.60
68139;DHT22;54940;50.842;4.410;2022-08-25T01:44:32;23.80;95.80
68139;DHT22;54940;50.842;4.410;2022-08-25T01:47:00;23.80;95.90
68139;DHT22;54940;50.842;4.410;2022-08-25T01:49:26;23.80;96.00
68139;DHT22;54940;50.842;4.410;2022-08-25T01:52:00;23.80;96.10
68139;DHT22;54940;50.842;4.410;2022-08-25T01:54:26;23.80;96.00
68139;DHT22;54940;50.842;4.410;2022-08-25T01:56:52;23.70;96.10
68139;DHT22;54940;50.842;4.410;2022-08-25T01:59:19;23.70;96.30
68139;DHT22;54940;50.842;4.410;2022-08-25T02:01:45;23.60;96.50
68139;DHT22;54940;50.842;4.410;2022-08-25T02:04:11;23.70;96.20
68139;DHT22;54940;50.842;4.410;2022-08-25T02:06:37;23.60;96.30
68139;DHT22;54940;50.842;4.410;2022-08-25T02:09:07;23.60;96.40
68139;DHT22;54940;50.842;4.410;2022-08-25T02:11:35;23.60;96.40
68139;DHT22;54940;50.842;4.410;2022-08-25T02:14:02;23.60;96.40
68139;DHT22;54940;50.842;4.410;2022-08-25T02:16:31;23.50;96.40
68139;DHT22;54940;50.842;4.410;2022-08-25T02:18:58;23.50;96.60
68139;DHT22;54940;50.842;4.410;2022-08-25T02:21:24;23.50;96.60
68139;DHT22;54940;50.842;4.410;2022-08-25T02:23:50;23.50;96.70
68139;DHT22;54940;50.842;4.410;2022-08-25T02:26:15;23.50;96.80
68139;DHT22;54940;50.842;4.410;2022-08-25T02:28:44;23.40;96.80
68139;DHT22;54940;50.842;4.410;2022-08-25T02:31:10;23.40;96.90
68139;DHT22;54940;50.842;4.410;2022-08-25T02:33:36;23.40;97.00
68139;DHT22;54940;50.842;4.410;2022-08-25T02:36:02;23.30;96.90
68139;DHT22;54940;50.842;4.410;2022-08-25T02:38:28;23.30;96.90
68139;DHT22;54940;50.842;4.410;2022-08-25T02:40:56;23.30;96.90
68139;DHT22;54940;50.842;4.410;2022-08-25T02:43:22;23.20;96.80
68139;DHT22;54940;50.842;4.410;2022-08-25T02:45:49;23.20;96.90
68139;DHT22;54940;50.842;4.410;2022-08-25T02:48:14;23.20;96.80
68139;DHT22;54940;50.842;4.410;2022-08-25T02:50:45;23.20;96.80
68139;DHT22;54940;50.842;4.410;2022-08-25T02:53:11;23.10;96.80
68139;DHT22;54940;50.842;4.410;2022-08-25T02:55:37;23.20;96.70
68139;DHT22;54940;50.842;4.410;2022-08-25T02:58:02;23.10;96.70
68139;DHT22;54940;50.842;4.410;2022-08-25T03:00:28;23.10;96.80
68139;DHT22;54940;50.842;4.410;2022-08-25T03:02:54;23.20;96.70
68139;DHT22;54940;50.842;4.410;2022-08-25T03:05:19;23.10;97.10
68139;DHT22;54940;50.842;4.410;2022-08-25T03:07:45;23.10;96.60
68139;DHT22;54940;50.842;4.410;2022-08-25T03:10:14;23.10;96.80
68139;DHT22;54940;50.842;4.410;2022-08-25T03:12:41;23.10;96.90
68139;DHT22;54940;50.842;4.410;2022-08-25T03:15:10;23.10;96.80
68139;DHT22;54940;50.842;4.410;2022-08-25T03:17:36;23.00;96.70
68139;DHT22;54940;50.842;4.410;2022-08-25T03:20:06;23.00;96.90
68139;DHT22;54940;50.842;4.410;2022-08-25T03:22:32;23.00;96.90
68139;DHT22;54940;50.842;4.410;2022-08-25T03:24:58;23.00;96.80
68139;DHT22;54940;50.842;4.410;2022-08-25T03:27:43;22.90;96.80
68139;DHT22;54940;50.842;4.410;2022-08-25T03:30:10;22.90;96.80
68139;DHT22;54940;50.842;4.410;2022-08-25T03:32:36;22.80;97.00
68139;DHT22;54940;50.842;4.410;2022-08-25T03:35:02;22.80;97.00
68139;DHT22;54940;50.842;4.410;2022-08-25T03:37:28;22.80;96.90
68139;DHT22;54940;50.842;4.410;2022-08-25T03:39:53;22.70;96.80
68139;DHT22;54940;50.842;4.410;2022-08-25T03:42:19;22.70;97.00
68139;DHT22;54940;50.842;4.410;2022-08-25T03:44:45;22.70;96.90
68139;DHT22;54940;50.842;4.410;2022-08-25T03:47:10;22.60;96.90
68139;DHT22;54940;50.842;4.410;2022-08-25T03:49:37;22.60;96.90
68139;DHT22;54940;50.842;4.410;2022-08-25T03:52:02;22.60;96.80
68139;DHT22;54940;50.842;4.410;2022-08-25T03:54:28;22.60;97.00
68139;DHT22;54940;50.842;4.410;2022-08-25T03:56:54;22.60;96.70
68139;DHT22;54940;50.842;4.410;2022-08-25T03:59:20;22.60;96.50
68139;DHT22;54940;50.842;4.410;2022-08-25T04:01:46;22.60;96.50
68139;DHT22;54940;50.842;4.410;2022-08-25T04:04:14;22.60;96.30
68139;DHT22;54940;50.842;4.410;2022-08-25T04:06:42;22.60;96.20
68139;DHT22;54940;50.842;4.410;2022-08-25T04:09:09;22.50;96.70
68139;DHT22;54940;50.842;4.410;2022-08-25T04:11:34;22.60;96.50
68139;DHT22;54940;50.842;4.410;2022-08-25T04:14:00;22.50;96.40
68139;DHT22;54940;50.842;4.410;2022-08-25T04:16:32;22.50;96.30
68139;DHT22;54940;50.842;4.410;2022-08-25T04:19:00;22.50;96.40
68139;DHT22;54940;50.842;4.410;2022-08-25T04:21:27;22.50;96.30
68139;DHT22;54940;50.842;4.410;2022-08-25T04:23:54;22.50;96.20
68139;DHT22;54940;50.842;4.410;2022-08-25T04:26:32;22.40;96.30
68139;DHT22;54940;50.842;4.410;2022-08-25T04:29:00;22.40;96.20
68139;DHT22;54940;50.842;4.410;2022-08-25T04:31:28;22.40;96.40
68139;DHT22;54940;50.842;4.410;2022-08-25T04:33:54;22.40;96.20
68139;DHT22;54940;50.842;4.410;2022-08-25T04:36:21;22.40;96.10
68139;DHT22;54940;50.842;4.410;2022-08-25T04:38:48;22.40;95.80
68139;DHT22;54940;50.842;4.410;2022-08-25T04:41:17;22.40;95.80
68139;DHT22;54940;50.842;4.410;2022-08-25T04:43:44;22.40;96.00
68139;DHT22;54940;50.842;4.410;2022-08-25T04:46:22;22.30;95.90
68139;DHT22;54940;50.842;4.410;2022-08-25T04:48:49;22.30;95.90
68139;DHT22;54940;50.842;4.410;2022-08-25T04:51:21;22.30;95.90
68139;DHT22;54940;50.842;4.410;2022-08-25T04:53:51;22.30;96.00
68139;DHT22;54940;50.842;4.410;2022-08-25T04:56:18;22.20;96.00
68139;DHT22;54940;50.842;4.410;2022-08-25T04:58:45;22.20;96.00
68139;DHT22;54940;50.842;4.410;2022-08-25T05:01:21;22.20;95.90
68139;DHT22;54940;50.842;4.410;2022-08-25T05:03:53;22.20;96.20
68139;DHT22;54940;50.842;4.410;2022-08-25T05:06:19;22.20;96.40
68139;DHT22;54940;50.842;4.410;2022-08-25T05:08:45;22.10;95.90
68139;DHT22;54940;50.842;4.410;2022-08-25T05:11:13;22.20;96.00
68139;DHT22;54940;50.842;4.410;2022-08-25T05:13:40;22.20;95.90
68139;DHT22;54940;50.842;4.410;2022-08-25T05:16:06;22.20;96.00
68139;DHT22;54940;50.842;4.410;2022-08-25T05:18:33;22.20;95.80
68139;DHT22;54940;50.842;4.410;2022-08-25T05:21:05;22.20;95.90
68139;DHT22;54940;50.842;4.410;2022-08-25T05:23:31;22.30;95.70
68139;DHT22;54940;50.842;4.410;2022-08-25T05:26:02;22.30;96.00
68139;DHT22;54940;50.842;4.410;2022-08-25T05:28:28;22.20;95.50
68139;DHT22;54940;50.842;4.410;2022-08-25T05:30:58;22.20;95.10
68139;DHT22;54940;50.842;4.410;2022-08-25T05:33:24;22.50;94.50
68139;DHT22;54940;50.842;4.410;2022-08-25T05:35:49;22.70;93.50
68139;DHT22;54940;50.842;4.410;2022-08-25T05:38:16;22.80;93.30
68139;DHT22;54940;50.842;4.410;2022-08-25T05:40:42;22.80;93.20
68139;DHT22;54940;50.842;4.410;2022-08-25T05:43:08;22.70;92.10
68139;DHT22;54940;50.842;4.410;2022-08-25T05:45:33;22.90;93.50
68139;DHT22;54940;50.842;4.410;2022-08-25T05:48:00;23.50;93.80
68139;DHT22;54940;50.842;4.410;2022-08-25T05:50:26;24.00;92.70
68139;DHT22;54940;50.842;4.410;2022-08-25T05:52:52;24.60;92.60
68139;DHT22;54940;50.842;4.410;2022-08-25T05:55:18;25.10;93.00
68139;DHT22;54940;50.842;4.410;2022-08-25T05:57:44;25.70;91.80
68139;DHT22;54940;50.842;4.410;2022-08-25T06:00:10;26.10;87.00
68139;DHT22;54940;50.842;4.410;2022-08-25T06:02:37;26.60;90.70
68139;DHT22;54940;50.842;4.410;2022-08-25T06:05:19;26.90;90.00
68139;DHT22;54940;50.842;4.410;2022-08-25T06:07:47;27.30;88.80
68139;DHT22;54940;50.842;4.410;2022-08-25T06:10:14;27.60;90.30
68139;DHT22;54940;50.842;4.410;2022-08-25T06:12:42;27.70;88.80
68139;DHT22;54940;50.842;4.410;2022-08-25T06:15:15;27.70;87.40
68139;DHT22;54940;50.842;4.410;2022-08-25T06:17:41;27.70;86.00
68139;DHT22;54940;50.842;4.410;2022-08-25T06:20:16;27.70;88.20
68139;DHT22;54940;50.842;4.410;2022-08-25T06:22:43;27.30;79.50
68139;DHT22;54940;50.842;4.410;2022-08-25T06:25:10;27.20;84.70
68139;DHT22;54940;50.842;4.410;2022-08-25T06:27:37;27.00;80.80
68139;DHT22;54940;50.842;4.410;2022-08-25T06:30:04;26.70;82.10
68139;DHT22;54940;50.842;4.410;2022-08-25T06:32:31;26.40;77.30
68139;DHT22;54940;50.842;4.410;2022-08-25T06:34:57;26.20;80.20
68139;DHT22;54940;50.842;4.410;2022-08-25T06:37:24;26.00;79.50
68139;DHT22;54940;50.842;4.410;2022-08-25T06:39:50;25.90;81.40
68139;DHT22;54940;50.842;4.410;2022-08-25T06:42:16;25.70;82.70
68139;DHT22;54940;50.842;4.410;2022-08-25T06:44:42;25.80;88.70
68139;DHT22;54940;50.842;4.410;2022-08-25T06:47:07;25.70;84.00
68139;DHT22;54940;50.842;4.410;2022-08-25T06:49:34;26.00;89.20
68139;DHT22;54940;50.842;4.410;2022-08-25T06:51:59;26.20;88.40
68139;DHT22;54940;50.842;4.410;2022-08-25T06:54:25;26.40;89.10
68139;DHT22;54940;50.842;4.410;2022-08-25T06:56:51;26.50;88.50
68139;DHT22;54940;50.842;4.410;2022-08-25T06:59:17;26.30;83.10
68139;DHT22;54940;50.842;4.410;2022-08-25T07:01:43;26.30;87.30
68139;DHT22;54940;50.842;4.410;2022-08-25T07:04:09;26.50;90.20
68139;DHT22;54940;50.842;4.410;2022-08-25T07:06:35;26.60;87.10
68139;DHT22;54940;50.842;4.410;2022-08-25T07:09:03;27.00;84.20
68139;DHT22;54940;50.842;4.410;2022-08-25T07:11:30;27.40;81.20
68139;DHT22;54940;50.842;4.410;2022-08-25T07:14:00;27.30;78.90
68139;DHT22;54940;50.842;4.410;2022-08-25T07:16:26;27.50;82.40
68139;DHT22;54940;50.842;4.410;2022-08-25T07:18:52;27.80;85.20
68139;DHT22;54940;50.842;4.410;2022-08-25T07:21:21;28.10;88.00
68139;DHT22;54940;50.842;4.410;2022-08-25T07:23:47;28.40;83.70
68139;DHT22;54940;50.842;4.410;2022-08-25T07:26:19;28.60;83.20
68139;DHT22;54940;50.842;4.410;2022-08-25T07:28:46;28.80;81.50
68139;DHT22;54940;50.842;4.410;2022-08-25T07:31:12;28.90;81.40
68139;DHT22;54940;50.842;4.410;2022-08-25T07:33:37;28.90;85.80
68139;DHT22;54940;50.842;4.410;2022-08-25T07:36:03;29.00;83.70
68139;DHT22;54940;50.842;4.410;2022-08-25T07:38:29;29.00;77.70
68139;DHT22;54940;50.842;4.410;2022-08-25T07:41:02;29.10;82.30
68139;DHT22;54940;50.842;4.410;2022-08-25T07:43:28;29.00;78.50
68139;DHT22;54940;50.842;4.410;2022-08-25T07:45:54;29.30;74.00
68139;DHT22;54940;50.842;4.410;2022-08-25T07:48:20;29.60;80.60
68139;DHT22;54940;50.842;4.410;2022-08-25T07:50:47;29.80;75.40
68139;DHT22;54940;50.842;4.410;2022-08-25T07:53:14;30.20;78.00
68139;DHT22;54940;50.842;4.410;2022-08-25T07:55:40;30.50;75.10
68139;DHT22;54940;50.842;4.410;2022-08-25T07:58:08;30.80;81.10
68139;DHT22;54940;50.842;4.410;2022-08-25T08:00:35;30.90;76.50
68139;DHT22;54940;50.842;4.410;2022-08-25T08:03:07;31.00;77.90
68139;DHT22;54940;50.842;4.410;2022-08-25T08:05:34;30.70;73.00
68139;DHT22;54940;50.842;4.410;2022-08-25T08:08:01;30.80;73.60
68139;DHT22;54940;50.842;4.410;2022-08-25T08:10:27;30.70;73.20
68139;DHT22;54940;50.842;4.410;2022-08-25T08:12:53;30.60;76.60
68139;DHT22;54940;50.842;4.410;2022-08-25T08:15:19;30.60;74.70
68139;DHT22;54940;50.842;4.410;2022-08-25T08:17:45;30.70;76.00
68139;DHT22;54940;50.842;4.410;2022-08-25T08:20:11;30.90;71.30
68139;DHT22;54940;50.842;4.410;2022-08-25T08:22:39;31.30;74.60
68139;DHT22;54940;50.842;4.410;2022-08-25T08:25:06;31.70;71.40
68139;DHT22;54940;50.842;4.410;2022-08-25T08:27:32;31.90;70.10
68139;DHT22;54940;50.842;4.410;2022-08-25T08:29:59;32.20;77.60
68139;DHT22;54940;50.842;4.410;2022-08-25T08:32:25;32.70;70.50
68139;DHT22;54940;50.842;4.410;2022-08-25T08:34:51;32.90;70.70
68139;DHT22;54940;50.842;4.410;2022-08-25T08:37:17;33.20;72.30
68139;DHT22;54940;50.842;4.410;2022-08-25T08:39:43;33.20;68.50
68139;DHT22;54940;50.842;4.410;2022-08-25T08:47:30;33.30;69.10
68139;DHT22;54940;50.842;4.410;2022-08-25T08:52:58;33.90;66.40
68139;DHT22;54940;50.842;4.410;2022-08-25T08:55:36;34.10;71.20
68139;DHT22;54940;50.842;4.410;2022-08-25T08:58:17;34.30;65.10
68139;DHT22;54940;50.842;4.410;2022-08-25T09:00:46;34.20;65.80
68139;DHT22;54940;50.842;4.410;2022-08-25T09:05:49;34.70;63.10
68139;DHT22;54940;50.842;4.410;2022-08-25T09:08:15;34.60;65.30
68139;DHT22;54940;50.842;4.410;2022-08-25T09:15:56;34.60;60.20
68139;DHT22;54940;50.842;4.410;2022-08-25T09:24:49;35.20;58.90
68139;DHT22;54940;50.842;4.410;2022-08-25T09:27:40;35.30;62.90
68139;DHT22;54940;50.842;4.410;2022-08-25T09:30:08;35.20;59.40
68139;DHT22;54940;50.842;4.410;2022-08-25T09:32:39;35.30;61.70
68139;DHT22;54940;50.842;4.410;2022-08-25T09:35:09;35.20;56.90
68139;DHT22;54940;50.842;4.410;2022-08-25T09:37:39;35.20;59.90
68139;DHT22;54940;50.842;4.410;2022-08-25T09:40:05;35.30;59.70
68139;DHT22;54940;50.842;4.410;2022-08-25T09:42:49;35.30;57.70
68139;DHT22;54940;50.842;4.410;2022-08-25T09:45:16;35.20;56.00
68139;DHT22;54940;50.842;4.410;2022-08-25T09:47:54;35.30;61.10
68139;DHT22;54940;50.842;4.410;2022-08-25T09:50:19;35.10;58.10
68139;DHT22;54940;50.842;4.410;2022-08-25T09:52:45;35.30;56.60
68139;DHT22;54940;50.842;4.410;2022-08-25T09:58:40;35.40;56.50
68139;DHT22;54940;50.842;4.410;2022-08-25T10:01:11;35.50;54.50
68139;DHT22;54940;50.842;4.410;2022-08-25T10:03:51;35.60;56.70
68139;DHT22;54940;50.842;4.410;2022-08-25T10:06:17;35.40;55.80
68139;DHT22;54940;50.842;4.410;2022-08-25T10:11:14;35.70;56.90
68139;DHT22;54940;50.842;4.410;2022-08-25T10:14:03;36.10;57.30
68139;DHT22;54940;50.842;4.410;2022-08-25T10:16:30;35.90;51.00
68139;DHT22;54940;50.842;4.410;2022-08-25T10:21:43;36.10;54.20
68139;DHT22;54940;50.842;4.410;2022-08-25T10:24:10;36.40;56.90
68139;DHT22;54940;50.842;4.410;2022-08-25T10:30:00;37.30;53.70
68139;DHT22;54940;50.842;4.410;2022-08-25T10:34:57;38.40;52.10
68139;DHT22;54940;50.842;4.410;2022-08-25T10:40:24;39.00;51.20
68139;DHT22;54940;50.842;4.410;2022-08-25T10:46:14;39.80;51.20
68139;DHT22;54940;50.842;4.410;2022-08-25T10:48:50;40.20;48.20
68139;DHT22;54940;50.842;4.410;2022-08-25T10:51:41;40.40;48.30
68139;DHT22;54940;50.842;4.410;2022-08-25T10:54:20;40.70;41.50
68139;DHT22;54940;50.842;4.410;2022-08-25T10:57:03;40.60;48.10
68139;DHT22;54940;50.842;4.410;2022-08-25T10:59:59;41.60;49.30
68139;DHT22;54940;50.842;4.410;2022-08-25T11:02:49;42.20;46.70
68139;DHT22;54940;50.842;4.410;2022-08-25T11:05:27;42.50;39.70
68139;DHT22;54940;50.842;4.410;2022-08-25T11:10:46;42.30;41.60
68139;DHT22;54940;50.842;4.410;2022-08-25T11:13:20;42.40;41.10
68139;DHT22;54940;50.842;4.410;2022-08-25T11:18:56;43.00;40.30
68139;DHT22;54940;50.842;4.410;2022-08-25T11:21:43;43.40;40.60
68139;DHT22;54940;50.842;4.410;2022-08-25T11:26:55;44.10;40.40
68139;DHT22;54940;50.842;4.410;2022-08-25T11:29:24;44.30;39.50
68139;DHT22;54940;50.842;4.410;2022-08-25T11:31:52;44.00;37.80
68139;DHT22;54940;50.842;4.410;2022-08-25T11:34:19;43.60;37.70
68139;DHT22;54940;50.842;4.410;2022-08-25T11:36:55;43.70;37.40
68139;DHT22;54940;50.842;4.410;2022-08-25T11:42:55;42.90;38.00
68139;DHT22;54940;50.842;4.410;2022-08-25T11:48:20;43.70;39.20
68139;DHT22;54940;50.842;4.410;2022-08-25T11:51:10;43.70;39.60
68139;DHT22;54940;50.842;4.410;2022-08-25T11:53:41;43.20;39.00
68139;DHT22;54940;50.842;4.410;2022-08-25T11:56:10;42.40;38.80
68139;DHT22;54940;50.842;4.410;2022-08-25T12:04:36;41.10;40.30
68139;DHT22;54940;50.842;4.410;2022-08-25T12:12:38;39.20;41.40
68139;DHT22;54940;50.842;4.410;2022-08-25T12:15:53;38.50;41.70
68139;DHT22;54940;50.842;4.410;2022-08-25T12:23:44;38.60;43.90
68139;DHT22;54940;50.842;4.410;2022-08-25T12:27:03;39.30;41.40
68139;DHT22;54940;50.842;4.410;2022-08-25T12:29:39;39.50;41.90
68139;DHT22;54940;50.842;4.410;2022-08-25T12:38:07;40.90;38.80
68139;DHT22;54940;50.842;4.410;2022-08-25T12:43:49;42.30;40.50
68139;DHT22;54940;50.842;4.410;2022-08-25T12:51:52;42.70;38.60
68139;DHT22;54940;50.842;4.410;2022-08-25T12:54:36;43.10;38.00
68139;DHT22;54940;50.842;4.410;2022-08-25T12:57:40;43.40;41.20
68139;DHT22;54940;50.842;4.410;2022-08-25T13:11:18;42.70;36.90
68139;DHT22;54940;50.842;4.410;2022-08-25T13:16:24;41.10;36.70
68139;DHT22;54940;50.842;4.410;2022-08-25T13:18:53;40.50;41.90
68139;DHT22;54940;50.842;4.410;2022-08-25T13:21:35;40.50;40.40
68139;DHT22;54940;50.842;4.410;2022-08-25T13:24:05;40.40;40.20
68139;DHT22;54940;50.842;4.410;2022-08-25T13:26:33;39.80;38.50
68139;DHT22;54940;50.842;4.410;2022-08-25T13:31:34;38.80;42.70
68139;DHT22;54940;50.842;4.410;2022-08-25T13:34:03;38.40;42.10
68139;DHT22;54940;50.842;4.410;2022-08-25T13:36:33;38.20;42.40
68139;DHT22;54940;50.842;4.410;2022-08-25T13:39:21;37.50;42.90
68139;DHT22;54940;50.842;4.410;2022-08-25T13:41:49;37.00;43.20
68139;DHT22;54940;50.842;4.410;2022-08-25T13:44:17;36.90;47.20
68139;DHT22;54940;50.842;4.410;2022-08-25T13:46:44;37.00;42.00
68139;DHT22;54940;50.842;4.410;2022-08-25T13:49:12;36.90;49.30
68139;DHT22;54940;50.842;4.410;2022-08-25T13:51:48;36.70;47.00
68139;DHT22;54940;50.842;4.410;2022-08-25T13:54:37;36.80;47.10
68139;DHT22;54940;50.842;4.410;2022-08-25T13:57:10;36.80;43.50
68139;DHT22;54940;50.842;4.410;2022-08-25T13:59:38;36.40;43.40
68139;DHT22;54940;50.842;4.410;2022-08-25T14:02:07;36.10;43.80
68139;DHT22;54940;50.842;4.410;2022-08-25T14:09:55;35.70;48.20
68139;DHT22;54940;50.842;4.410;2022-08-25T14:17:59;35.50;50.10
68139;DHT22;54940;50.842;4.410;2022-08-25T14:20:28;35.10;51.90
68139;DHT22;54940;50.842;4.410;2022-08-25T14:23:09;34.60;52.90
68139;DHT22;54940;50.842;4.410;2022-08-25T14:25:39;34.70;54.40
68139;DHT22;54940;50.842;4.410;2022-08-25T14:28:13;34.90;54.00
68139;DHT22;54940;50.842;4.410;2022-08-25T14:30:42;35.30;54.20
68139;DHT22;54940;50.842;4.410;2022-08-25T14:33:09;35.80;53.40
68139;DHT22;54940;50.842;4.410;2022-08-25T14:35:34;36.70;51.80
68139;DHT22;54940;50.842;4.410;2022-08-25T14:38:08;37.20;50.20
68139;DHT22;54940;50.842;4.410;2022-08-25T14:40:35;37.80;50.10
68139;DHT22;54940;50.842;4.410;2022-08-25T14:43:00;38.30;47.70
68139;DHT22;54940;50.842;4.410;2022-08-25T14:45:26;38.80;47.30
68139;DHT22;54940;50.842;4.410;2022-08-25T14:47:52;38.80;48.30
68139;DHT22;54940;50.842;4.410;2022-08-25T14:50:19;39.00;48.30
68139;DHT22;54940;50.842;4.410;2022-08-25T14:52:44;38.50;46.90
68139;DHT22;54940;50.842;4.410;2022-08-25T14:55:11;37.80;48.30
68139;DHT22;54940;50.842;4.410;2022-08-25T14:57:37;37.10;47.30
68139;DHT22;54940;50.842;4.410;2022-08-25T15:00:04;36.60;50.20
68139;DHT22;54940;50.842;4.410;2022-08-25T15:02:41;36.20;51.30
68139;DHT22;54940;50.842;4.410;2022-08-25T15:05:09;35.50;51.20
68139;DHT22;54940;50.842;4.410;2022-08-25T15:07:37;35.30;50.90
68139;DHT22;54940;50.842;4.410;2022-08-25T15:10:21;35.20;52.50
68139;DHT22;54940;50.842;4.410;2022-08-25T15:12:47;34.90;52.30
68139;DHT22;54940;50.842;4.410;2022-08-25T15:15:14;34.60;51.40
68139;DHT22;54940;50.842;4.410;2022-08-25T15:17:40;34.40;52.10
68139;DHT22;54940;50.842;4.410;2022-08-25T15:20:07;34.30;53.40
68139;DHT22;54940;50.842;4.410;2022-08-25T15:22:33;33.90;55.20
68139;DHT22;54940;50.842;4.410;2022-08-25T15:24:58;33.80;56.40
68139;DHT22;54940;50.842;4.410;2022-08-25T15:27:24;33.50;57.70
68139;DHT22;54940;50.842;4.410;2022-08-25T15:29:50;33.40;58.40
68139;DHT22;54940;50.842;4.410;2022-08-25T15:32:15;33.20;59.20
68139;DHT22;54940;50.842;4.410;2022-08-25T15:34:41;33.00;59.10
68139;DHT22;54940;50.842;4.410;2022-08-25T15:37:13;32.90;60.60
68139;DHT22;54940;50.842;4.410;2022-08-25T15:39:41;32.70;62.20
68139;DHT22;54940;50.842;4.410;2022-08-25T15:42:08;32.60;62.50
68139;DHT22;54940;50.842;4.410;2022-08-25T15:44:37;32.40;64.20
68139;DHT22;54940;50.842;4.410;2022-08-25T15:47:02;32.20;65.30
68139;DHT22;54940;50.842;4.410;2022-08-25T15:49:28;32.10;66.00
68139;DHT22;54940;50.842;4.410;2022-08-25T15:51:54;32.00;67.00
68139;DHT22;54940;50.842;4.410;2022-08-25T15:54:21;31.70;68.00
68139;DHT22;54940;50.842;4.410;2022-08-25T15:56:47;31.60;67.70
68139;DHT22;54940;50.842;4.410;2022-08-25T15:59:13;31.20;68.30
68139;DHT22;54940;50.842;4.410;2022-08-25T16:01:39;30.90;69.50
68139;DHT22;54940;50.842;4.410;2022-08-25T16:04:05;30.90;69.50
68139;DHT22;54940;50.842;4.410;2022-08-25T16:06:31;30.90;70.20
68139;DHT22;54940;50.842;4.410;2022-08-25T16:08:58;30.80;70.50
68139;DHT22;54940;50.842;4.410;2022-08-25T16:11:26;30.60;71.10
68139;DHT22;54940;50.842;4.410;2022-08-25T16:13:54;30.40;72.30
68139;DHT22;54940;50.842;4.410;2022-08-25T16:16:22;30.50;72.20
68139;DHT22;54940;50.842;4.410;2022-08-25T16:18:48;30.50;73.50
68139;DHT22;54940;50.842;4.410;2022-08-25T16:21:17;30.50;73.10
68139;DHT22;54940;50.842;4.410;2022-08-25T16:23:44;30.50;73.50
68139;DHT22;54940;50.842;4.410;2022-08-25T16:26:12;30.40;73.70
68139;DHT22;54940;50.842;4.410;2022-08-25T16:28:39;30.30;74.90
68139;DHT22;54940;50.842;4.410;2022-08-25T16:31:08;30.20;75.70
68139;DHT22;54940;50.842;4.410;2022-08-25T16:33:34;30.10;76.20
68139;DHT22;54940;50.842;4.410;2022-08-25T16:36:08;30.20;75.90
68139;DHT22;54940;50.842;4.410;2022-08-25T16:38:36;30.10;76.60
68139;DHT22;54940;50.842;4.410;2022-08-25T16:41:06;30.00;77.80
68139;DHT22;54940;50.842;4.410;2022-08-25T16:43:31;29.90;78.00
68139;DHT22;54940;50.842;4.410;2022-08-25T16:46:00;29.90;79.00
68139;DHT22;54940;50.842;4.410;2022-08-25T16:48:26;29.80;79.00
68139;DHT22;54940;50.842;4.410;2022-08-25T16:50:52;29.70;79.40
68139;DHT22;54940;50.842;4.410;2022-08-25T16:53:18;29.70;79.90
68139;DHT22;54940;50.842;4.410;2022-08-25T16:56:03;29.80;80.60
68139;DHT22;54940;50.842;4.410;2022-08-25T16:58:30;29.50;81.20
68139;DHT22;54940;50.842;4.410;2022-08-25T17:01:06;29.30;81.20
68139;DHT22;54940;50.842;4.410;2022-08-25T17:03:33;29.10;80.60
68139;DHT22;54940;50.842;4.410;2022-08-25T17:05:59;28.70;82.20
68139;DHT22;54940;50.842;4.410;2022-08-25T17:08:25;28.80;82.50
68139;DHT22;54940;50.842;4.410;2022-08-25T17:11:14;28.80;82.40
68139;DHT22;54940;50.842;4.410;2022-08-25T17:13:43;28.80;81.80
68139;DHT22;54940;50.842;4.410;2022-08-25T17:16:09;28.50;82.50
68139;DHT22;54940;50.842;4.410;2022-08-25T17:18:36;28.40;82.80
68139;DHT22;54940;50.842;4.410;2022-08-25T17:21:06;28.40;83.40
68139;DHT22;54940;50.842;4.410;2022-08-25T17:23:32;28.30;84.20
68139;DHT22;54940;50.842;4.410;2022-08-25T17:25:58;28.20;84.60
68139;DHT22;54940;50.842;4.410;2022-08-25T17:28:24;28.30;84.80
68139;DHT22;54940;50.842;4.410;2022-08-25T17:30:51;28.30;84.60
68139;DHT22;54940;50.842;4.410;2022-08-25T17:33:17;28.10;85.00
68139;DHT22;54940;50.842;4.410;2022-08-25T17:35:47;28.10;84.70
68139;DHT22;54940;50.842;4.410;2022-08-25T17:38:14;28.00;86.00
68139;DHT22;54940;50.842;4.410;2022-08-25T17:40:40;27.90;86.50